sensor_id;sensor_type;location;lat;lon;timestamp;pressure;altitude;pressure_sealevel;temperature;humidity
7966;BME280;4028;43.272;26.932;2023-02-13T00:01:02;101142.03;;;0.93;100.00
7966;BME280;4028;43.272;26.932;2023-02-13T00:03:28;101138.38;;;1.00;100.00
7966;BME280;4028;43.272;26.932;2023-02-13T00:05:53;101140.84;;;1.07;100.00
7966;BME280;4028;43.272;26.932;2023-02-13T00:08:19;101144.34;;;1.06;100.00
7966;BME280;4028;43.272;26.932;2023-02-13T00:10:44;101151.97;;;1.15;100.00
7966;BME280;4028;43.272;26.932;2023-02-13T00:13:11;101145.75;;;1.20;100.00
7966;BME280;4028;43.272;26.932;2023-02-13T00:15:36;101153.72;;;1.14;100.00
7966;BME280;4028;43.272;26.932;2023-02-13T00:18:02;101145.84;;;1.16;100.00
7966;BME280;4028;43.272;26.932;2023-02-13T00:20:28;101144.06;;;1.18;100.00
7966;BME280;4028;43.272;26.932;2023-02-13T00:22:53;101148.34;;;1.20;100.00
7966;BME280;4028;43.272;26.932;2023-02-13T00:25:18;101150.91;;;1.22;100.00
7966;BME280;4028;43.272;26.932;2023-02-13T00:27:44;101149.16;;;1.22;100.00
7966;BME280;4028;43.272;26.932;2023-02-13T00:30:10;101143.09;;;1.22;100.00
7966;BME280;4028;43.272;26.932;2023-02-13T00:32:35;101136.34;;;1.13;100.00
7966;BME280;4028;43.272;26.932;2023-02-13T00:35:01;101136.53;;;1.06;100.00
7966;BME280;4028;43.272;26.932;2023-02-13T00:37:27;101142.34;;;1.17;100.00
7966;BME280;4028;43.272;26.932;2023-02-13T00:39:52;101142.47;;;1.11;100.00
7966;BME280;4028;43.272;26.932;2023-02-13T00:42:18;101142.56;;;1.08;100.00
7966;BME280;4028;43.272;26.932;2023-02-13T00:44:44;101141.47;;;1.18;100.00
7966;BME280;4028;43.272;26.932;2023-02-13T00:47:10;101152.09;;;1.09;100.00
7966;BME280;4028;43.272;26.932;2023-02-13T00:49:38;101148.66;;;1.07;100.00
7966;BME280;4028;43.272;26.932;2023-02-13T00:52:04;101146.03;;;1.08;100.00
7966;BME280;4028;43.272;26.932;2023-02-13T00:54:29;101141.81;;;1.02;100.00
7966;BME280;4028;43.272;26.932;2023-02-13T00:56:55;101145.25;;;1.04;100.00
7966;BME280;4028;43.272;26.932;2023-02-13T00:59:20;101153.13;;;1.01;100.00
7966;BME280;4028;43.272;26.932;2023-02-13T01:01:46;101147.13;;;0.98;100.00
7966;BME280;4028;43.272;26.932;2023-02-13T01:04:11;101141.94;;;0.96;100.00
7966;BME280;4028;43.272;26.932;2023-02-13T01:06:37;101144.63;;;0.93;100.00
7966;BME280;4028;43.272;26.932;2023-02-13T01:09:03;101146.47;;;0.88;100.00
7966;BME280;4028;43.272;26.932;2023-02-13T01:11:30;101148.34;;;0.83;100.00
7966;BME280;4028;43.272;26.932;2023-02-13T01:13:55;101144.13;;;0.76;100.00
7966;BME280;4028;43.272;26.932;2023-02-13T01:16:21;101143.25;;;0.77;100.00
7966;BME280;4028;43.272;26.932;2023-02-13T01:18:46;101143.06;;;0.85;100.00
7966;BME280;4028;43.272;26.932;2023-02-13T01:21:18;101142.06;;;0.90;100.00
7966;BME280;4028;43.272;26.932;2023-02-13T01:23:45;101146.38;;;0.93;100.00
7966;BME280;4028;43.272;26.932;2023-02-13T01:26:17;101143.72;;;0.94;100.00
7966;BME280;4028;43.272;26.932;2023-02-13T01:28:43;101144.69;;;0.90;100.00
7966;BME280;4028;43.272;26.932;2023-02-13T01:31:09;101146.50;;;0.87;100.00
7966;BME280;4028;43.272;26.932;2023-02-13T01:33:34;101151.00;;;0.80;100.00
7966;BME280;4028;43.272;26.932;2023-02-13T01:36:07;101150.94;;;0.83;100.00
7966;BME280;4028;43.272;26.932;2023-02-13T01:38:33;101153.53;;;0.83;100.00
7966;BME280;4028;43.272;26.932;2023-02-13T01:40:58;101155.34;;;0.80;100.00
7966;BME280;4028;43.272;26.932;2023-02-13T01:44:02;101151.06;;;0.77;100.00
7966;BME280;4028;43.272;26.932;2023-02-13T01:46:38;101166.59;;;0.82;100.00
7966;BME280;4028;43.272;26.932;2023-02-13T01:49:16;101150.84;;;0.86;100.00
7966;BME280;4028;43.272;26.932;2023-02-13T01:51:43;101148.25;;;0.86;100.00
7966;BME280;4028;43.272;26.932;2023-02-13T01:54:16;101143.13;;;0.83;100.00
7966;BME280;4028;43.272;26.932;2023-02-13T01:56:51;101150.19;;;0.78;100.00
7966;BME280;4028;43.272;26.932;2023-02-13T01:59:22;101158.66;;;0.88;100.00
7966;BME280;4028;43.272;26.932;2023-02-13T02:01:49;101160.28;;;0.93;100.00
7966;BME280;4028;43.272;26.932;2023-02-13T02:04:21;101144.78;;;0.86;100.00
7966;BME280;4028;43.272;26.932;2023-02-13T02:07:15;101150.38;;;0.69;100.00
7966;BME280;4028;43.272;26.932;2023-02-13T02:09:43;101145.16;;;0.69;100.00
7966;BME280;4028;43.272;26.932;2023-02-13T02:12:36;101147.47;;;0.81;100.00
7966;BME280;4028;43.272;26.932;2023-02-13T02:15:05;101146.88;;;0.70;100.00
7966;BME280;4028;43.272;26.932;2023-02-13T02:17:31;101154.63;;;0.73;100.00
7966;BME280;4028;43.272;26.932;2023-02-13T02:45:56;101160.53;;;0.39;100.00
7966;BME280;4028;43.272;26.932;2023-02-13T02:48:43;101143.59;;;0.17;100.00
7966;BME280;4028;43.272;26.932;2023-02-13T02:52:13;101144.63;;;0.08;100.00
7966;BME280;4028;43.272;26.932;2023-02-13T02:57:40;101161.25;;;-0.01;100.00
7966;BME280;4028;43.272;26.932;2023-02-13T03:00:27;101153.44;;;0.01;100.00
7966;BME280;4028;43.272;26.932;2023-02-13T03:03:16;101154.44;;;-0.05;100.00
7966;BME280;4028;43.272;26.932;2023-02-13T03:08:56;101148.34;;;-0.04;100.00
7966;BME280;4028;43.272;26.932;2023-02-13T03:11:44;101148.34;;;-0.04;100.00
7966;BME280;4028;43.272;26.932;2023-02-13T03:14:31;101153.66;;;-0.10;100.00
7966;BME280;4028;43.272;26.932;2023-02-13T03:16:57;101133.97;;;-0.26;100.00
7966;BME280;4028;43.272;26.932;2023-02-13T03:19:51;101157.97;;;-0.09;100.00
7966;BME280;4028;43.272;26.932;2023-02-13T03:23:25;101158.81;;;-0.08;100.00
7966;BME280;4028;43.272;26.932;2023-02-13T03:34:37;101159.94;;;-0.23;100.00
7966;BME280;4028;43.272;26.932;2023-02-13T03:37:28;101164.41;;;-0.30;100.00
7966;BME280;4028;43.272;26.932;2023-02-13T03:40:31;101155.78;;;-0.33;100.00
7966;BME280;4028;43.272;26.932;2023-02-13T03:43:10;101154.19;;;-0.40;100.00
7966;BME280;4028;43.272;26.932;2023-02-13T03:45:39;101138.75;;;-0.53;100.00
7966;BME280;4028;43.272;26.932;2023-02-13T03:48:35;101154.41;;;-0.54;100.00
7966;BME280;4028;43.272;26.932;2023-02-13T03:51:59;101158.50;;;-0.39;100.00
7966;BME280;4028;43.272;26.932;2023-02-13T03:54:56;101148.91;;;-0.37;100.00
7966;BME280;4028;43.272;26.932;2023-02-13T03:57:43;101144.56;;;-0.35;100.00
7966;BME280;4028;43.272;26.932;2023-02-13T04:00:33;101147.34;;;-0.46;100.00
7966;BME280;4028;43.272;26.932;2023-02-13T04:05:38;101149.31;;;-0.60;100.00
7966;BME280;4028;43.272;26.932;2023-02-13T04:08:05;101150.19;;;-0.63;100.00
7966;BME280;4028;43.272;26.932;2023-02-13T04:10:33;101133.94;;;-0.75;100.00
7966;BME280;4028;43.272;26.932;2023-02-13T04:15:50;101146.88;;;-0.71;100.00
7966;BME280;4028;43.272;26.932;2023-02-13T04:18:21;101139.91;;;-0.69;100.00
7966;BME280;4028;43.272;26.932;2023-02-13T04:20:48;101143.19;;;-0.56;100.00
7966;BME280;4028;43.272;26.932;2023-02-13T04:23:14;101150.09;;;-0.55;100.00
7966;BME280;4028;43.272;26.932;2023-02-13T04:25:41;101140.56;;;-0.56;100.00
7966;BME280;4028;43.272;26.932;2023-02-13T04:28:07;101143.31;;;-0.67;100.00
7966;BME280;4028;43.272;26.932;2023-02-13T04:30:33;101135.31;;;-0.53;100.00
7966;BME280;4028;43.272;26.932;2023-02-13T04:32:58;101144.09;;;-0.62;100.00
7966;BME280;4028;43.272;26.932;2023-02-13T04:35:24;101134.66;;;-0.66;100.00
7966;BME280;4028;43.272;26.932;2023-02-13T04:37:49;101143.31;;;-0.65;100.00
7966;BME280;4028;43.272;26.932;2023-02-13T04:40:15;101132.31;;;-0.81;100.00
7966;BME280;4028;43.272;26.932;2023-02-13T04:42:40;101149.50;;;-0.74;100.00
7966;BME280;4028;43.272;26.932;2023-02-13T04:45:06;101152.00;;;-0.66;100.00
7966;BME280;4028;43.272;26.932;2023-02-13T04:47:32;101131.88;;;-0.55;100.00
7966;BME280;4028;43.272;26.932;2023-02-13T04:49:57;101150.09;;;-0.55;100.00
7966;BME280;4028;43.272;26.932;2023-02-13T04:52:23;101144.09;;;-0.62;100.00
7966;BME280;4028;43.272;26.932;2023-02-13T04:54:48;101146.84;;;-0.69;100.00
7966;BME280;4028;43.272;26.932;2023-02-13T04:57:14;101142.47;;;-0.66;100.00
7966;BME280;4028;43.272;26.932;2023-02-13T04:59:39;101137.25;;;-0.67;100.00
7966;BME280;4028;43.272;26.932;2023-02-13T05:02:05;101138.22;;;-0.71;100.00
7966;BME280;4028;43.272;26.932;2023-02-13T05:04:31;101140.78;;;-0.70;100.00
7966;BME280;4028;43.272;26.932;2023-02-13T05:06:56;101141.50;;;-0.62;100.00
7966;BME280;4028;43.272;26.932;2023-02-13T05:09:22;101153.66;;;-0.62;100.00
7966;BME280;4028;43.272;26.932;2023-02-13T05:11:51;101153.91;;;-0.79;100.00
7966;BME280;4028;43.272;26.932;2023-02-13T05:14:16;101141.94;;;-0.89;100.00
7966;BME280;4028;43.272;26.932;2023-02-13T05:16:42;101170.56;;;-0.91;100.00
7966;BME280;4028;43.272;26.932;2023-02-13T05:19:07;101169.53;;;-0.79;100.00
7966;BME280;4028;43.272;26.932;2023-02-13T05:21:33;101173.78;;;-0.75;100.00
7966;BME280;4028;43.272;26.932;2023-02-13T05:24:17;101169.38;;;-0.70;100.00
7966;BME280;4028;43.272;26.932;2023-02-13T05:26:43;101172.09;;;-0.77;100.00
7966;BME280;4028;43.272;26.932;2023-02-13T05:29:09;101169.41;;;-0.73;100.00
7966;BME280;4028;43.272;26.932;2023-02-13T05:31:47;101169.53;;;-0.79;100.00
7966;BME280;4028;43.272;26.932;2023-02-13T05:34:13;101180.03;;;-0.88;100.00
7966;BME280;4028;43.272;26.932;2023-02-13T05:36:38;101172.28;;;-0.90;100.00
7966;BME280;4028;43.272;26.932;2023-02-13T05:39:04;101198.25;;;-0.88;100.00
7966;BME280;4028;43.272;26.932;2023-02-13T05:41:30;101195.53;;;-0.82;100.00
7966;BME280;4028;43.272;26.932;2023-02-13T05:43:55;101198.19;;;-0.84;100.00
7966;BME280;4028;43.272;26.932;2023-02-13T05:46:21;101204.16;;;-0.79;100.00
7966;BME280;4028;43.272;26.932;2023-02-13T05:48:46;101205.03;;;-0.78;100.00
7966;BME280;4028;43.272;26.932;2023-02-13T05:51:12;101203.28;;;-0.77;100.00
7966;BME280;4028;43.272;26.932;2023-02-13T05:53:37;101209.34;;;-0.77;100.00
7966;BME280;4028;43.272;26.932;2023-02-13T05:56:04;101207.59;;;-0.75;100.00
7966;BME280;4028;43.272;26.932;2023-02-13T05:58:30;101199.78;;;-0.75;100.00
7966;BME280;4028;43.272;26.932;2023-02-13T06:00:57;101195.41;;;-0.73;100.00
7966;BME280;4028;43.272;26.932;2023-02-13T06:03:26;101198.03;;;-0.73;100.00
7966;BME280;4028;43.272;26.932;2023-02-13T06:05:53;101183.28;;;-0.71;100.00
7966;BME280;4028;43.272;26.932;2023-02-13T06:08:19;101185.81;;;-0.66;100.00
7966;BME280;4028;43.272;26.932;2023-02-13T06:10:46;101197.00;;;-0.63;100.00
7966;BME280;4028;43.272;26.932;2023-02-13T06:13:11;101197.78;;;-0.56;100.00
7966;BME280;4028;43.272;26.932;2023-02-13T06:15:37;101186.34;;;-0.46;100.00
7966;BME280;4028;43.272;26.932;2023-02-13T06:18:02;101183.69;;;-0.43;100.00
7966;BME280;4028;43.272;26.932;2023-02-13T06:20:28;101188.97;;;-0.46;100.00
7966;BME280;4028;43.272;26.932;2023-02-13T06:22:53;101191.63;;;-0.50;100.00
7966;BME280;4028;43.272;26.932;2023-02-13T06:25:19;101189.03;;;-0.50;100.00
7966;BME280;4028;43.272;26.932;2023-02-13T06:27:45;101190.66;;;-0.45;100.00
7966;BME280;4028;43.272;26.932;2023-02-13T06:30:11;101187.16;;;-0.41;100.00
7966;BME280;4028;43.272;26.932;2023-02-13T06:32:37;101193.19;;;-0.40;100.00
7966;BME280;4028;43.272;26.932;2023-02-13T06:35:02;101186.00;;;-0.24;100.00
7966;BME280;4028;43.272;26.932;2023-02-13T06:37:28;101187.53;;;-0.13;100.00
7966;BME280;4028;43.272;26.932;2023-02-13T06:39:53;101174.41;;;-0.05;100.00
7966;BME280;4028;43.272;26.932;2023-02-13T06:42:18;101179.53;;;-0.02;100.00
7966;BME280;4028;43.272;26.932;2023-02-13T06:44:44;101184.66;;;0.03;100.00
7966;BME280;4028;43.272;26.932;2023-02-13T06:47:10;101171.69;;;-0.01;100.00
7966;BME280;4028;43.272;26.932;2023-02-13T06:49:35;101165.63;;;-0.01;100.00
7966;BME280;4028;43.272;26.932;2023-02-13T06:52:00;101169.03;;;0.03;100.00
7966;BME280;4028;43.272;26.932;2023-02-13T06:54:26;101162.78;;;0.13;100.00
7966;BME280;4028;43.272;26.932;2023-02-13T06:56:51;101163.31;;;0.30;100.00
7966;BME280;4028;43.272;26.932;2023-02-13T06:59:17;101165.69;;;0.42;100.00
7966;BME280;4028;43.272;26.932;2023-02-13T07:01:42;101167.81;;;0.65;100.00
7966;BME280;4028;43.272;26.932;2023-02-13T07:04:08;101174.63;;;1.11;100.00
7966;BME280;4028;43.272;26.932;2023-02-13T07:06:33;101177.59;;;1.70;100.00
7966;BME280;4028;43.272;26.932;2023-02-13T07:09:00;101174.84;;;2.42;97.72
7966;BME280;4028;43.272;26.932;2023-02-13T07:11:26;101173.53;;;3.16;85.12
7966;BME280;4028;43.272;26.932;2023-02-13T07:13:51;101171.28;;;4.09;75.05
7966;BME280;4028;43.272;26.932;2023-02-13T07:16:17;101169.25;;;4.89;66.58
7966;BME280;4028;43.272;26.932;2023-02-13T07:18:43;101178.34;;;5.48;63.60
7966;BME280;4028;43.272;26.932;2023-02-13T07:21:08;101181.81;;;5.70;62.72
7966;BME280;4028;43.272;26.932;2023-02-13T07:23:34;101178.56;;;6.27;58.96
7966;BME280;4028;43.272;26.932;2023-02-13T07:25:59;101173.34;;;6.66;56.11
7966;BME280;4028;43.272;26.932;2023-02-13T07:28:26;101176.81;;;6.85;54.83
7966;BME280;4028;43.272;26.932;2023-02-13T07:30:52;101168.56;;;6.93;54.44
7966;BME280;4028;43.272;26.932;2023-02-13T07:33:18;101167.50;;;6.78;53.94
7966;BME280;4028;43.272;26.932;2023-02-13T07:35:47;101174.25;;;7.02;53.13
7966;BME280;4028;43.272;26.932;2023-02-13T07:38:14;101170.91;;;6.99;52.62
7966;BME280;4028;43.272;26.932;2023-02-13T07:40:39;101174.81;;;7.28;51.21
7966;BME280;4028;43.272;26.932;2023-02-13T07:43:05;101148.50;;;7.45;51.98
7966;BME280;4028;43.272;26.932;2023-02-13T07:45:30;101155.41;;;7.82;49.85
7966;BME280;4028;43.272;26.932;2023-02-13T07:47:56;101158.59;;;8.41;48.67
7966;BME280;4028;43.272;26.932;2023-02-13T07:50:22;101157.88;;;8.55;48.09
7966;BME280;4028;43.272;26.932;2023-02-13T07:52:55;101154.81;;;9.26;46.65
7966;BME280;4028;43.272;26.932;2023-02-13T07:55:22;101154.72;;;9.89;46.00
7966;BME280;4028;43.272;26.932;2023-02-13T07:57:47;101136.75;;;10.53;43.08
7966;BME280;4028;43.272;26.932;2023-02-13T08:00:14;101142.22;;;10.78;41.88
7966;BME280;4028;43.272;26.932;2023-02-13T08:02:39;101146.59;;;10.51;42.25
7966;BME280;4028;43.272;26.932;2023-02-13T08:05:05;101151.22;;;10.03;43.32
7966;BME280;4028;43.272;26.932;2023-02-13T08:07:31;101133.97;;;10.11;43.51
7966;BME280;4028;43.272;26.932;2023-02-13T08:09:57;101146.22;;;10.43;43.81
7966;BME280;4028;43.272;26.932;2023-02-13T08:12:41;101136.56;;;10.27;43.90
7966;BME280;4028;43.272;26.932;2023-02-13T08:15:09;101140.19;;;10.40;43.63
7966;BME280;4028;43.272;26.932;2023-02-13T08:17:35;101132.03;;;10.72;42.93
7966;BME280;4028;43.272;26.932;2023-02-13T08:20:01;101129.09;;;11.18;42.83
7966;BME280;4028;43.272;26.932;2023-02-13T08:22:26;101122.88;;;11.99;40.99
7966;BME280;4028;43.272;26.932;2023-02-13T08:24:52;101124.03;;;12.07;40.57
7966;BME280;4028;43.272;26.932;2023-02-13T08:27:17;101126.69;;;12.33;39.94
7966;BME280;4028;43.272;26.932;2023-02-13T08:29:43;101121.94;;;12.25;39.62
7966;BME280;4028;43.272;26.932;2023-02-13T08:32:08;101130.00;;;12.49;39.05
7966;BME280;4028;43.272;26.932;2023-02-13T08:34:34;101125.00;;;12.94;38.73
7966;BME280;4028;43.272;26.932;2023-02-13T08:37:00;101118.41;;;13.36;37.92
7966;BME280;4028;43.272;26.932;2023-02-13T08:39:26;101108.34;;;13.64;36.50
7966;BME280;4028;43.272;26.932;2023-02-13T08:41:52;101115.03;;;13.81;35.60
7966;BME280;4028;43.272;26.932;2023-02-13T08:44:17;101106.81;;;13.72;35.32
7966;BME280;4028;43.272;26.932;2023-02-13T08:46:42;101095.16;;;13.14;34.60
7966;BME280;4028;43.272;26.932;2023-02-13T08:49:08;101108.38;;;12.66;34.76
7966;BME280;4028;43.272;26.932;2023-02-13T08:51:33;101114.09;;;11.71;33.58
7966;BME280;4028;43.272;26.932;2023-02-13T08:53:59;101112.03;;;11.22;32.99
7966;BME280;4028;43.272;26.932;2023-02-13T08:56:24;101106.34;;;10.60;34.34
7966;BME280;4028;43.272;26.932;2023-02-13T08:58:50;101115.75;;;10.21;35.03
7966;BME280;4028;43.272;26.932;2023-02-13T09:01:16;101100.88;;;9.90;36.28
7966;BME280;4028;43.272;26.932;2023-02-13T09:03:41;101115.16;;;10.16;36.21
7966;BME280;4028;43.272;26.932;2023-02-13T09:06:07;101105.78;;;10.40;36.14
7966;BME280;4028;43.272;26.932;2023-02-13T09:08:34;101109.78;;;10.18;35.37
7966;BME280;4028;43.272;26.932;2023-02-13T09:11:02;101107.50;;;9.83;36.18
7966;BME280;4028;43.272;26.932;2023-02-13T09:13:29;101100.31;;;9.85;36.07
7966;BME280;4028;43.272;26.932;2023-02-13T09:16:02;101103.03;;;9.98;35.66
7966;BME280;4028;43.272;26.932;2023-02-13T09:18:27;101103.00;;;10.13;35.59
7966;BME280;4028;43.272;26.932;2023-02-13T09:21:01;101072.66;;;10.19;35.96
7966;BME280;4028;43.272;26.932;2023-02-13T09:23:32;101093.69;;;10.92;34.91
7966;BME280;4028;43.272;26.932;2023-02-13T09:25:59;101102.28;;;11.23;34.74
7966;BME280;4028;43.272;26.932;2023-02-13T09:28:25;101086.88;;;10.88;34.69
7966;BME280;4028;43.272;26.932;2023-02-13T09:30:50;101075.06;;;10.79;34.94
7966;BME280;4028;43.272;26.932;2023-02-13T09:33:16;101084.63;;;11.09;34.92
7966;BME280;4028;43.272;26.932;2023-02-13T09:35:41;101074.00;;;11.23;34.70
7966;BME280;4028;43.272;26.932;2023-02-13T09:38:08;101070.25;;;11.13;34.68
7966;BME280;4028;43.272;26.932;2023-02-13T09:40:42;101054.72;;;11.21;34.83
7966;BME280;4028;43.272;26.932;2023-02-13T09:43:17;101065.25;;;10.81;34.97
7966;BME280;4028;43.272;26.932;2023-02-13T09:45:46;101046.59;;;10.41;35.60
7966;BME280;4028;43.272;26.932;2023-02-13T09:48:21;101058.69;;;10.31;36.17
7966;BME280;4028;43.272;26.932;2023-02-13T09:50:50;101051.16;;;10.39;35.88
7966;BME280;4028;43.272;26.932;2023-02-13T09:53:21;101046.91;;;10.64;35.75
7966;BME280;4028;43.272;26.932;2023-02-13T09:56:08;101029.97;;;11.08;35.86
7966;BME280;4028;43.272;26.932;2023-02-13T09:58:48;101028.69;;;11.66;35.40
7966;BME280;4028;43.272;26.932;2023-02-13T10:01:25;101022.38;;;11.94;35.30
7966;BME280;4028;43.272;26.932;2023-02-13T10:04:29;101015.81;;;12.36;35.86
7966;BME280;4028;43.272;26.932;2023-02-13T10:10:02;101013.56;;;12.56;36.23
7966;BME280;4028;43.272;26.932;2023-02-13T10:13:06;101011.56;;;13.18;35.51
7966;BME280;4028;43.272;26.932;2023-02-13T10:15:56;101005.34;;;13.77;34.55
7966;BME280;4028;43.272;26.932;2023-02-13T10:18:37;101003.41;;;14.01;34.44
7966;BME280;4028;43.272;26.932;2023-02-13T10:21:07;100998.69;;;13.94;34.34
7966;BME280;4028;43.272;26.932;2023-02-13T10:23:58;100994.34;;;14.04;34.00
7966;BME280;4028;43.272;26.932;2023-02-13T10:26:31;100987.94;;;14.18;33.55
7966;BME280;4028;43.272;26.932;2023-02-13T10:29:14;100988.41;;;14.34;33.05
7966;BME280;4028;43.272;26.932;2023-02-13T10:32:04;100980.31;;;13.79;33.74
7966;BME280;4028;43.272;26.932;2023-02-13T10:34:37;100986.59;;;13.67;34.02
7966;BME280;4028;43.272;26.932;2023-02-13T10:37:11;100957.31;;;14.01;33.86
7966;BME280;4028;43.272;26.932;2023-02-13T10:39:41;100967.31;;;14.42;33.46
7966;BME280;4028;43.272;26.932;2023-02-13T10:44:42;100953.88;;;14.44;33.09
7966;BME280;4028;43.272;26.932;2023-02-13T11:03:40;100939.59;;;15.30;32.08
7966;BME280;4028;43.272;26.932;2023-02-13T11:06:08;100934.41;;;14.32;32.48
7966;BME280;4028;43.272;26.932;2023-02-13T11:08:41;100932.00;;;14.72;32.88
7966;BME280;4028;43.272;26.932;2023-02-13T11:11:33;100922.34;;;15.34;32.08
7966;BME280;4028;43.272;26.932;2023-02-13T11:16:48;100917.28;;;14.89;32.19
7966;BME280;4028;43.272;26.932;2023-02-13T11:22:29;100908.16;;;14.16;33.30
7966;BME280;4028;43.272;26.932;2023-02-13T11:25:00;100909.41;;;14.88;33.00
7966;BME280;4028;43.272;26.932;2023-02-13T11:27:30;100904.88;;;14.99;32.73
7966;BME280;4028;43.272;26.932;2023-02-13T11:33:18;100900.41;;;16.13;31.37
7966;BME280;4028;43.272;26.932;2023-02-13T11:35:45;100895.72;;;14.92;32.62
7966;BME280;4028;43.272;26.932;2023-02-13T11:40:51;100888.31;;;14.64;33.40
7966;BME280;4028;43.272;26.932;2023-02-13T11:43:23;100888.22;;;15.07;33.00
7966;BME280;4028;43.272;26.932;2023-02-13T11:46:07;100887.19;;;15.19;32.81
7966;BME280;4028;43.272;26.932;2023-02-13T11:48:36;100881.72;;;15.72;32.38
7966;BME280;4028;43.272;26.932;2023-02-13T11:51:02;100877.13;;;15.53;32.25
7966;BME280;4028;43.272;26.932;2023-02-13T11:53:36;100865.00;;;15.70;32.18
7966;BME280;4028;43.272;26.932;2023-02-13T11:56:10;100865.81;;;16.21;31.98
7966;BME280;4028;43.272;26.932;2023-02-13T11:58:37;100854.09;;;15.83;32.05
7966;BME280;4028;43.272;26.932;2023-02-13T12:04:12;100846.09;;;15.93;31.99
7966;BME280;4028;43.272;26.932;2023-02-13T12:06:58;100838.22;;;15.51;32.75
7966;BME280;4028;43.272;26.932;2023-02-13T12:09:24;100843.81;;;14.96;33.70
7966;BME280;4028;43.272;26.932;2023-02-13T12:11:55;100840.72;;;14.91;33.73
7966;BME280;4028;43.272;26.932;2023-02-13T12:14:39;100825.50;;;15.33;33.43
7966;BME280;4028;43.272;26.932;2023-02-13T12:17:14;100832.75;;;15.52;33.13
7966;BME280;4028;43.272;26.932;2023-02-13T12:19:43;100829.28;;;15.62;33.35
7966;BME280;4028;43.272;26.932;2023-02-13T12:22:40;100829.78;;;15.55;33.45
7966;BME280;4028;43.272;26.932;2023-02-13T12:25:36;100831.47;;;14.95;33.98
7966;BME280;4028;43.272;26.932;2023-02-13T12:28:19;100832.13;;;14.02;35.63
7966;BME280;4028;43.272;26.932;2023-02-13T12:31:10;100831.81;;;13.40;36.63
7966;BME280;4028;43.272;26.932;2023-02-13T12:34:04;100838.00;;;12.94;37.75
7966;BME280;4028;43.272;26.932;2023-02-13T12:36:57;100837.91;;;12.49;38.69
7966;BME280;4028;43.272;26.932;2023-02-13T12:39:49;100837.16;;;12.47;38.78
7966;BME280;4028;43.272;26.932;2023-02-13T12:55:52;100823.81;;;12.25;40.13
7966;BME280;4028;43.272;26.932;2023-02-13T13:12:30;100811.16;;;11.67;41.66
7966;BME280;4028;43.272;26.932;2023-02-13T13:14:57;100801.66;;;11.39;42.39
7966;BME280;4028;43.272;26.932;2023-02-13T13:25:30;100820.75;;;11.81;42.41
7966;BME280;4028;43.272;26.932;2023-02-13T13:28:10;100814.69;;;11.42;42.65
7966;BME280;4028;43.272;26.932;2023-02-13T13:30:38;100808.56;;;11.29;42.61
7966;BME280;4028;43.272;26.932;2023-02-13T13:33:15;100812.59;;;11.22;43.11
7966;BME280;4028;43.272;26.932;2023-02-13T13:41:17;100797.00;;;10.79;44.29
7966;BME280;4028;43.272;26.932;2023-02-13T13:51:50;100787.97;;;10.44;45.12
7966;BME280;4028;43.272;26.932;2023-02-13T13:54:18;100788.50;;;10.36;45.25
7966;BME280;4028;43.272;26.932;2023-02-13T14:05:02;100765.78;;;9.92;47.01
7966;BME280;4028;43.272;26.932;2023-02-13T14:07:38;100765.59;;;9.68;47.41
7966;BME280;4028;43.272;26.932;2023-02-13T14:12:49;100759.69;;;9.50;48.30
7966;BME280;4028;43.272;26.932;2023-02-13T14:18:20;100756.34;;;9.61;48.80
7966;BME280;4028;43.272;26.932;2023-02-13T14:31:19;100758.56;;;9.26;51.10
7966;BME280;4028;43.272;26.932;2023-02-13T14:34:06;100757.84;;;9.24;50.80
7966;BME280;4028;43.272;26.932;2023-02-13T14:36:37;100761.03;;;9.00;51.68
7966;BME280;4028;43.272;26.932;2023-02-13T14:44:22;100748.72;;;8.87;53.55
7966;BME280;4028;43.272;26.932;2023-02-13T14:46:49;100746.22;;;8.69;54.69
7966;BME280;4028;43.272;26.932;2023-02-13T14:49:23;100732.69;;;8.75;54.81
7966;BME280;4028;43.272;26.932;2023-02-13T14:52:05;100742.38;;;8.75;55.71
7966;BME280;4028;43.272;26.932;2023-02-13T14:54:42;100739.16;;;8.70;56.08
7966;BME280;4028;43.272;26.932;2023-02-13T14:57:19;100736.16;;;8.76;56.66
7966;BME280;4028;43.272;26.932;2023-02-13T14:59:49;100738.59;;;8.79;56.69
7966;BME280;4028;43.272;26.932;2023-02-13T15:02:21;100748.13;;;8.67;58.50
7966;BME280;4028;43.272;26.932;2023-02-13T15:04:54;100743.22;;;8.61;58.86
7966;BME280;4028;43.272;26.932;2023-02-13T15:07:23;100732.41;;;8.36;60.97
7966;BME280;4028;43.272;26.932;2023-02-13T15:12:37;100742.09;;;8.35;62.11
7966;BME280;4028;43.272;26.932;2023-02-13T15:15:22;100744.06;;;8.31;62.66
7966;BME280;4028;43.272;26.932;2023-02-13T15:17:48;100745.66;;;8.34;62.45
7966;BME280;4028;43.272;26.932;2023-02-13T15:20:24;100741.09;;;8.38;63.44
7966;BME280;4028;43.272;26.932;2023-02-13T15:22:52;100739.16;;;8.25;64.18
7966;BME280;4028;43.272;26.932;2023-02-13T15:27:54;100741.78;;;8.25;65.28
7966;BME280;4028;43.272;26.932;2023-02-13T15:30:25;100745.75;;;8.02;66.82
7966;BME280;4028;43.272;26.932;2023-02-13T15:32:59;100744.75;;;8.05;67.16
7966;BME280;4028;43.272;26.932;2023-02-13T15:35:31;100739.16;;;7.95;67.11
7966;BME280;4028;43.272;26.932;2023-02-13T15:37:58;100759.56;;;7.92;68.67
7966;BME280;4028;43.272;26.932;2023-02-13T15:40:29;100752.25;;;7.81;70.09
7966;BME280;4028;43.272;26.932;2023-02-13T15:42:56;100760.66;;;7.88;70.46
7966;BME280;4028;43.272;26.932;2023-02-13T15:45:24;100747.00;;;7.81;70.99
7966;BME280;4028;43.272;26.932;2023-02-13T15:47:50;100764.84;;;7.76;71.91
7966;BME280;4028;43.272;26.932;2023-02-13T15:50:20;100761.53;;;7.72;72.60
7966;BME280;4028;43.272;26.932;2023-02-13T15:52:48;100757.28;;;7.70;73.84
7966;BME280;4028;43.272;26.932;2023-02-13T15:55:23;100760.63;;;7.73;74.80
7966;BME280;4028;43.272;26.932;2023-02-13T15:57:50;100759.44;;;7.63;75.69
7966;BME280;4028;43.272;26.932;2023-02-13T16:00:39;100762.63;;;7.37;78.83
7966;BME280;4028;43.272;26.932;2023-02-13T16:03:11;100761.13;;;7.48;80.01
7966;BME280;4028;43.272;26.932;2023-02-13T16:05:39;100754.91;;;7.34;81.06
7966;BME280;4028;43.272;26.932;2023-02-13T16:08:29;100765.69;;;7.29;82.69